createdAt,value
2018-12-30T00:00:57.606Z,14.10
2018-12-30T00:03:46.978Z,18.80
2018-12-30T00:06:36.781Z,16.70
2018-12-30T00:09:26.370Z,22.87
2018-12-30T00:12:15.116Z,19.13
2018-12-30T00:15:04.583Z,17.83
2018-12-30T00:17:53.908Z,18.80
2018-12-30T00:20:43.426Z,26.33
2018-12-30T00:23:32.517Z,19.43
2018-12-30T00:26:21.626Z,21.43
2018-12-30T00:29:10.086Z,22.33
2018-12-30T00:31:59.772Z,20.30
2018-12-30T00:34:48.587Z,16.47
2018-12-30T00:37:37.685Z,19.03
2018-12-30T00:40:16.824Z,13.37
2018-12-30T00:43:05.897Z,14.57
2018-12-30T00:45:55.135Z,21.07
2018-12-30T00:48:44.080Z,15.73
2018-12-30T00:51:33.129Z,16.67
2018-12-30T00:54:22.380Z,29.87
2018-12-30T00:57:11.471Z,22.30
2018-12-30T01:00:00.816Z,28.50
2018-12-30T01:02:51.585Z,19.50
2018-12-30T01:05:41.600Z,20.93
2018-12-30T01:08:30.838Z,20.97
2018-12-30T01:11:19.852Z,20.60
2018-12-30T01:14:08.759Z,22.60
2018-12-30T01:16:57.289Z,16.97
2018-12-30T01:19:46.468Z,16.53
2018-12-30T01:22:16.716Z,24.17
2018-12-30T01:25:06.178Z,15.87
2018-12-30T01:27:54.922Z,18.63
2018-12-30T01:30:44.413Z,32.37
2018-12-30T01:33:14.441Z,18.67
2018-12-30T01:36:03.278Z,20.47
2018-12-30T01:38:52.225Z,19.67
2018-12-30T01:41:41.425Z,13.53
2018-12-30T01:44:30.943Z,25.30
2018-12-30T01:47:19.924Z,16.53
2018-12-30T01:50:08.460Z,20.90
2018-12-30T01:52:57.196Z,17.30
2018-12-30T01:55:45.964Z,23.17
2018-12-30T01:58:34.826Z,20.00
2018-12-30T02:01:24.842Z,22.33
2018-12-30T02:04:13.929Z,24.90
2018-12-30T02:07:03.230Z,18.27
2018-12-30T02:09:52.363Z,29.10
2018-12-30T02:12:42.034Z,30.13
2018-12-30T02:15:12.249Z,22.03
2018-12-30T02:18:01.262Z,23.87
2018-12-30T02:20:49.943Z,21.20
2018-12-30T02:23:38.764Z,22.23
2018-12-30T02:26:27.853Z,19.80
2018-12-30T02:29:17.126Z,18.17
2018-12-30T02:32:06.244Z,19.63
2018-12-30T02:34:54.826Z,16.50
2018-12-30T02:37:43.505Z,20.53
2018-12-30T02:40:32.565Z,17.27
2018-12-30T02:43:21.961Z,21.10
2018-12-30T02:46:11.703Z,21.03
2018-12-30T02:49:00.669Z,13.60
2018-12-30T02:51:50.402Z,21.70
2018-12-30T02:54:40.048Z,13.07
2018-12-30T02:57:28.757Z,14.63
2018-12-30T03:00:18.251Z,19.83
2018-12-30T03:03:07.567Z,23.43
2018-12-30T03:05:56.684Z,16.70
2018-12-30T03:08:45.734Z,20.30
2018-12-30T03:11:34.966Z,14.73
2018-12-30T03:14:24.149Z,16.47
2018-12-30T03:16:58.188Z,16.30
2018-12-30T03:19:47.056Z,19.17
2018-12-30T03:22:35.898Z,16.60
2018-12-30T03:25:25.228Z,19.37
2018-12-30T03:28:14.444Z,21.30
2018-12-30T03:31:03.474Z,14.63
2018-12-30T03:33:52.139Z,20.97
2018-12-30T03:36:40.850Z,17.13
2018-12-30T03:39:29.963Z,16.83
2018-12-30T03:42:20.332Z,22.50
2018-12-30T03:45:09.475Z,16.80
2018-12-30T03:47:58.328Z,19.37
2018-12-30T03:50:47.826Z,19.70
2018-12-30T03:53:37.078Z,21.90
2018-12-30T03:56:26.373Z,12.40
2018-12-30T03:59:15.598Z,18.37
2018-12-30T04:02:04.397Z,15.67
2018-12-30T04:04:53.155Z,16.20
2018-12-30T04:07:41.867Z,25.57
2018-12-30T04:10:33.103Z,22.77
2018-12-30T04:13:06.102Z,23.60
2018-12-30T04:15:36.151Z,23.43
2018-12-30T04:18:25.013Z,18.13
2018-12-30T04:21:14.276Z,19.27
2018-12-30T04:24:02.883Z,20.37
2018-12-30T04:26:51.970Z,11.47
2018-12-30T04:29:41.473Z,24.53
2018-12-30T04:32:30.188Z,23.70
2018-12-30T04:35:19.784Z,20.43
2018-12-30T04:38:08.201Z,22.43
2018-12-30T04:40:56.813Z,16.80
2018-12-30T04:43:42.710Z,19.10
2018-12-30T04:46:31.702Z,14.83
2018-12-30T04:49:21.074Z,24.73
2018-12-30T04:52:10.307Z,18.57
2018-12-30T04:54:59.038Z,26.00
2018-12-30T04:57:48.104Z,27.73
2018-12-30T05:00:37.352Z,13.73
2018-12-30T05:03:26.155Z,15.00
2018-12-30T05:06:15.591Z,15.30
2018-12-30T05:09:06.459Z,20.53
2018-12-30T05:11:55.629Z,16.70
2018-12-30T05:14:44.076Z,16.23
2018-12-30T05:17:33.017Z,25.57
2018-12-30T05:20:21.908Z,19.80
2018-12-30T05:23:11.264Z,16.13
2018-12-30T05:26:00.675Z,24.10
2018-12-30T05:28:49.712Z,25.83
2018-12-30T05:31:38.809Z,22.97
2018-12-30T05:34:27.561Z,19.50
2018-12-30T05:37:17.047Z,15.37
2018-12-30T05:40:05.788Z,23.03
2018-12-30T05:42:54.749Z,18.93
2018-12-30T05:45:43.809Z,22.27
2018-12-30T05:48:32.824Z,15.10
2018-12-30T05:51:21.638Z,15.67
2018-12-30T05:54:11.082Z,20.43
2018-12-30T05:56:59.877Z,18.20
2018-12-30T05:59:36.888Z,13.93
2018-12-30T06:02:26.244Z,22.13
2018-12-30T06:05:15.108Z,20.53
2018-12-30T06:08:04.191Z,22.70
2018-12-30T06:10:53.114Z,21.67
2018-12-30T06:13:41.886Z,16.33
2018-12-30T06:16:30.506Z,19.33
2018-12-30T06:19:19.337Z,17.00
2018-12-30T06:22:08.266Z,17.37
2018-12-30T06:24:57.000Z,12.13
2018-12-30T06:27:46.544Z,13.17
2018-12-30T06:30:35.621Z,19.33
2018-12-30T06:33:24.553Z,23.03
2018-12-30T06:36:13.297Z,16.70
2018-12-30T06:39:01.951Z,16.43
2018-12-30T06:41:41.409Z,20.63
2018-12-30T06:44:31.401Z,17.60
2018-12-30T06:47:20.896Z,13.77
2018-12-30T06:50:11.105Z,19.43
2018-12-30T06:53:00.300Z,15.37
2018-12-30T06:55:51.953Z,23.17
2018-12-30T06:58:41.531Z,24.90
2018-12-30T07:01:32.864Z,16.30
2018-12-30T07:04:22.118Z,23.97
2018-12-30T07:07:11.270Z,20.80
2018-12-30T07:10:02.363Z,23.70
2018-12-30T07:12:51.691Z,18.37
2018-12-30T07:15:27.970Z,13.37
2018-12-30T07:18:16.801Z,16.50
2018-12-30T07:21:05.554Z,13.87
2018-12-30T07:23:54.060Z,15.13
2018-12-30T07:26:43.605Z,14.00
2018-12-30T07:29:33.012Z,20.40
2018-12-30T07:32:21.940Z,17.93
2018-12-30T07:35:10.509Z,14.90
2018-12-30T07:37:59.557Z,16.77
2018-12-30T07:40:48.138Z,16.60
2018-12-30T07:43:37.054Z,15.23
2018-12-30T07:46:25.987Z,14.17
2018-12-30T07:49:14.617Z,12.00
2018-12-30T07:52:03.601Z,11.40
2018-12-30T07:54:52.732Z,8.43
2018-12-30T07:57:41.770Z,18.53
2018-12-30T08:00:31.157Z,14.33
2018-12-30T08:03:20.993Z,13.93
2018-12-30T08:06:09.721Z,15.87
2018-12-30T08:08:59.076Z,12.87
2018-12-30T08:11:48.173Z,14.40
2018-12-30T08:14:37.794Z,16.20
2018-12-30T08:17:26.991Z,13.87
2018-12-30T08:20:16.190Z,8.30
2018-12-30T08:23:05.102Z,11.20
2018-12-30T08:25:54.520Z,15.30
2018-12-30T08:28:45.368Z,15.70
2018-12-30T08:31:34.138Z,18.20
2018-12-30T08:34:23.648Z,15.90
2018-12-30T08:37:13.356Z,15.17
2018-12-30T08:40:02.627Z,12.37
2018-12-30T08:42:52.978Z,17.10
2018-12-30T08:45:23.088Z,14.00
2018-12-30T08:48:11.816Z,14.60
2018-12-30T08:51:01.048Z,9.97
2018-12-30T08:53:50.466Z,15.07
2018-12-30T08:56:39.967Z,15.03
2018-12-30T08:59:29.536Z,11.97
2018-12-30T09:02:19.056Z,13.83
2018-12-30T09:05:08.024Z,12.73
2018-12-30T09:07:57.192Z,15.67
2018-12-30T09:10:46.384Z,14.67
2018-12-30T09:13:35.341Z,10.13
2018-12-30T09:16:24.114Z,10.10
2018-12-30T09:19:13.415Z,15.40
2018-12-30T09:22:02.510Z,13.20
2018-12-30T09:24:52.333Z,15.00
2018-12-30T09:27:42.212Z,19.97
2018-12-30T09:30:31.322Z,15.23
2018-12-30T09:33:20.730Z,16.53
2018-12-30T09:36:09.597Z,13.90
2018-12-30T09:38:58.753Z,12.53
2018-12-30T09:41:48.340Z,11.33
2018-12-30T09:44:36.847Z,10.83
2018-12-30T09:47:25.617Z,10.73
2018-12-30T09:50:14.910Z,14.77
2018-12-30T09:53:04.327Z,19.97
2018-12-30T09:55:52.997Z,19.70
2018-12-30T09:58:42.590Z,17.20
2018-12-30T10:01:31.651Z,12.40
2018-12-30T10:04:20.769Z,20.20
2018-12-30T10:07:10.058Z,17.47
2018-12-30T10:09:59.306Z,18.90
2018-12-30T10:12:48.685Z,8.63
2018-12-30T10:15:38.145Z,10.23
2018-12-30T10:18:27.216Z,13.77
2018-12-30T10:21:16.061Z,14.93
2018-12-30T10:24:05.342Z,8.10
2018-12-30T10:26:54.581Z,10.63
2018-12-30T10:29:44.263Z,19.37
2018-12-30T10:32:20.848Z,13.47
2018-12-30T10:35:10.013Z,14.80
2018-12-30T10:37:58.631Z,11.90
2018-12-30T10:40:47.259Z,10.83
2018-12-30T10:43:36.166Z,10.53
2018-12-30T10:46:06.297Z,11.97
2018-12-30T10:48:55.067Z,10.07
2018-12-30T10:51:41.169Z,17.13
2018-12-30T10:54:32.340Z,13.40
2018-12-30T10:57:21.605Z,8.63
2018-12-30T11:00:11.202Z,11.97
2018-12-30T11:03:00.239Z,14.33
2018-12-30T11:05:49.754Z,10.60
2018-12-30T11:08:38.401Z,14.87
2018-12-30T11:11:27.810Z,11.97
2018-12-30T11:14:17.483Z,10.53
2018-12-30T11:17:07.265Z,13.23
2018-12-30T11:19:57.067Z,8.97
2018-12-30T11:22:46.150Z,13.03
2018-12-30T11:25:35.120Z,8.77
2018-12-30T11:28:23.682Z,8.53
2018-12-30T11:31:13.855Z,11.20
2018-12-30T11:34:02.940Z,12.50
2018-12-30T11:36:52.703Z,12.53
2018-12-30T11:39:41.412Z,8.07
2018-12-30T11:42:30.875Z,16.00
2018-12-30T11:45:19.665Z,9.63
2018-12-30T11:48:08.836Z,12.10
2018-12-30T11:50:58.154Z,11.00
2018-12-30T11:53:47.616Z,14.27
2018-12-30T11:56:36.784Z,12.63
2018-12-30T11:59:25.684Z,12.07
2018-12-30T12:02:14.917Z,9.10
2018-12-30T12:05:04.365Z,8.27
2018-12-30T12:07:34.757Z,14.27
2018-12-30T12:10:23.284Z,14.23
2018-12-30T12:13:12.166Z,15.73
2018-12-30T12:16:01.395Z,12.77
2018-12-30T12:18:50.278Z,20.63
2018-12-30T12:21:39.647Z,13.80
2018-12-30T12:24:28.729Z,15.47
2018-12-30T12:27:18.286Z,14.00
2018-12-30T12:30:09.593Z,12.00
2018-12-30T12:32:58.194Z,16.47
2018-12-30T12:35:47.239Z,10.73
2018-12-30T12:38:36.091Z,17.90
2018-12-30T12:41:06.440Z,15.10
2018-12-30T12:43:55.892Z,10.67
2018-12-30T12:46:45.211Z,15.20
2018-12-30T12:49:34.354Z,19.33
2018-12-30T12:52:17.073Z,11.60
2018-12-30T12:55:06.371Z,12.83
2018-12-30T12:57:55.317Z,15.83
2018-12-30T13:00:46.985Z,13.50
2018-12-30T13:03:35.890Z,13.03
2018-12-30T13:06:25.618Z,13.10
2018-12-30T13:09:14.536Z,16.97
2018-12-30T13:12:04.168Z,13.20
2018-12-30T13:14:53.733Z,14.87
2018-12-30T13:17:43.266Z,15.50
2018-12-30T13:20:32.573Z,14.73
2018-12-30T13:23:21.753Z,14.07
2018-12-30T13:26:10.496Z,14.60
2018-12-30T13:28:59.241Z,19.63
2018-12-30T13:31:48.719Z,19.00
2018-12-30T13:34:19.061Z,19.50
2018-12-30T13:37:08.359Z,19.70
2018-12-30T13:39:57.423Z,16.97
2018-12-30T13:42:47.298Z,13.17
2018-12-30T13:45:36.378Z,19.70
2018-12-30T13:48:24.919Z,20.23
2018-12-30T13:51:13.543Z,21.57
2018-12-30T13:54:02.636Z,15.43
2018-12-30T13:56:52.004Z,18.07
2018-12-30T13:59:40.786Z,15.17
2018-12-30T14:02:30.157Z,12.83
2018-12-30T14:05:19.877Z,18.97
2018-12-30T14:08:08.705Z,20.23
2018-12-30T14:10:38.911Z,24.47
2018-12-30T14:13:28.389Z,18.53
2018-12-30T14:16:17.534Z,16.97
2018-12-30T14:19:06.334Z,23.10
2018-12-30T14:21:55.106Z,13.33
2018-12-30T14:24:44.102Z,18.50
2018-12-30T14:27:33.291Z,17.73
2018-12-30T14:30:04.091Z,20.73
2018-12-30T14:32:53.979Z,16.37
2018-12-30T14:35:42.682Z,24.00
2018-12-30T14:38:31.645Z,16.07
2018-12-30T14:41:10.606Z,14.50
2018-12-30T14:43:59.386Z,16.40
2018-12-30T14:46:48.026Z,16.43
2018-12-30T14:49:37.176Z,13.20
2018-12-30T14:52:16.692Z,19.17
2018-12-30T14:55:07.671Z,19.63
2018-12-30T14:57:56.926Z,25.97
2018-12-30T15:00:47.695Z,18.13
2018-12-30T15:03:36.885Z,22.83
2018-12-30T15:06:25.842Z,16.90
2018-12-30T15:09:15.640Z,16.80
2018-12-30T15:12:04.995Z,19.57
2018-12-30T15:14:53.678Z,15.43
2018-12-30T15:17:42.503Z,15.47
2018-12-30T15:20:31.929Z,17.17
2018-12-30T15:23:21.311Z,16.63
2018-12-30T15:25:53.889Z,21.30
2018-12-30T15:28:42.594Z,19.00
2018-12-30T15:31:31.784Z,17.37
2018-12-30T15:34:20.966Z,19.43
2018-12-30T15:37:09.805Z,20.47
2018-12-30T15:39:58.686Z,22.87
2018-12-30T15:42:47.136Z,22.47
2018-12-30T15:45:35.832Z,17.53
2018-12-30T15:48:21.666Z,24.40
2018-12-30T15:50:52.137Z,13.37
2018-12-30T15:53:22.589Z,18.70
2018-12-30T15:55:52.724Z,16.00
2018-12-30T15:58:22.833Z,23.60
2018-12-30T16:01:11.944Z,19.27
2018-12-30T16:04:00.801Z,21.67
2018-12-30T16:06:49.991Z,19.93
2018-12-30T16:09:38.752Z,29.83
2018-12-30T16:12:27.597Z,19.80
2018-12-30T16:15:16.784Z,23.33
2018-12-30T16:18:05.923Z,22.70
2018-12-30T16:20:54.723Z,23.77
2018-12-30T16:23:43.688Z,26.80
2018-12-30T16:26:32.247Z,23.47
2018-12-30T16:29:21.152Z,26.43
2018-12-30T16:32:10.891Z,23.80
2018-12-30T16:34:59.414Z,23.73
2018-12-30T16:37:49.490Z,35.17
2018-12-30T16:40:19.914Z,29.97
2018-12-30T16:43:09.174Z,24.73
2018-12-30T16:45:58.149Z,30.30
2018-12-30T16:48:47.646Z,37.50
2018-12-30T16:51:37.146Z,30.50
2018-12-30T16:54:25.999Z,37.63
2018-12-30T16:57:15.602Z,32.57
2018-12-30T17:00:05.040Z,39.47
2018-12-30T17:02:54.248Z,42.27
2018-12-30T17:05:43.239Z,61.20
2018-12-30T17:08:32.368Z,86.07
2018-12-30T17:11:15.138Z,82.50
2018-12-30T17:14:04.792Z,33.77
2018-12-30T17:16:53.404Z,36.00
2018-12-30T17:19:42.519Z,43.20
2018-12-30T17:22:31.505Z,37.53
2018-12-30T17:25:20.755Z,35.63
2018-12-30T17:28:10.215Z,41.73
2018-12-30T17:30:59.546Z,34.73
2018-12-30T17:33:48.671Z,41.77
2018-12-30T17:36:37.600Z,42.73
2018-12-30T17:39:26.443Z,37.60
2018-12-30T17:42:15.075Z,34.73
2018-12-30T17:45:03.711Z,32.77
2018-12-30T17:47:52.499Z,36.30
2018-12-30T17:50:41.824Z,43.50
2018-12-30T17:53:31.229Z,35.93
2018-12-30T17:56:21.087Z,46.30
2018-12-30T17:59:09.597Z,40.07
2018-12-30T18:01:58.707Z,43.40
2018-12-30T18:04:48.089Z,35.53
2018-12-30T18:07:37.725Z,43.77
2018-12-30T18:10:27.022Z,44.60
2018-12-30T18:13:16.357Z,42.53
2018-12-30T18:16:05.509Z,43.80
2018-12-30T18:18:50.447Z,46.77
2018-12-30T18:21:39.496Z,48.50
2018-12-30T18:24:28.613Z,43.00
2018-12-30T18:27:17.988Z,44.80
2018-12-30T18:30:07.793Z,41.67
2018-12-30T18:32:56.972Z,43.50
2018-12-30T18:35:46.426Z,41.97
2018-12-30T18:38:36.545Z,46.97
2018-12-30T18:41:25.679Z,56.07
2018-12-30T18:44:15.400Z,48.53
2018-12-30T18:47:04.129Z,60.47
2018-12-30T18:49:53.648Z,52.47
2018-12-30T18:52:42.186Z,55.10
2018-12-30T18:55:31.522Z,51.10
2018-12-30T18:58:20.593Z,53.57
2018-12-30T19:01:09.312Z,56.87
2018-12-30T19:03:57.996Z,49.07
2018-12-30T19:06:47.323Z,57.57
2018-12-30T19:09:36.416Z,53.23
2018-12-30T19:12:25.691Z,54.57
2018-12-30T19:15:14.792Z,59.20
2018-12-30T19:18:03.995Z,56.23
2018-12-30T19:20:53.217Z,55.27
2018-12-30T19:23:42.140Z,54.40
2018-12-30T19:26:31.247Z,52.20
2018-12-30T19:29:08.267Z,51.77
2018-12-30T19:31:57.340Z,49.57
2018-12-30T19:34:46.742Z,51.67
2018-12-30T19:37:36.257Z,55.57
2018-12-30T19:40:08.172Z,56.37
2018-12-30T19:42:57.223Z,53.87
2018-12-30T19:45:47.161Z,55.20
2018-12-30T19:48:36.537Z,55.53
2018-12-30T19:51:26.000Z,56.27
2018-12-30T19:54:14.809Z,56.60
2018-12-30T19:57:04.338Z,47.57
2018-12-30T19:59:53.523Z,50.17
2018-12-30T20:02:42.767Z,53.70
2018-12-30T20:05:31.914Z,60.10
2018-12-30T20:08:20.708Z,55.23
2018-12-30T20:11:09.881Z,56.90
2018-12-30T20:13:46.934Z,63.13
2018-12-30T20:16:35.864Z,55.43
2018-12-30T20:19:24.727Z,55.30
2018-12-30T20:22:14.149Z,54.27
2018-12-30T20:25:03.226Z,53.33
2018-12-30T20:27:39.814Z,62.70
2018-12-30T20:30:28.691Z,60.13
2018-12-30T20:33:19.276Z,62.27
2018-12-30T20:36:08.297Z,57.77
2018-12-30T20:38:58.528Z,63.10
2018-12-30T20:41:47.616Z,69.13
2018-12-30T20:44:36.742Z,67.97
2018-12-30T20:47:26.362Z,63.60
2018-12-30T20:50:15.470Z,64.00
2018-12-30T20:53:04.147Z,59.57
2018-12-30T20:55:52.866Z,65.90
2018-12-30T20:58:41.837Z,54.67
2018-12-30T21:01:31.110Z,63.80
2018-12-30T21:04:19.681Z,68.57
2018-12-30T21:07:10.114Z,66.93
2018-12-30T21:09:40.839Z,67.13
2018-12-30T21:12:29.856Z,67.63
2018-12-30T21:15:18.942Z,62.10
2018-12-30T21:18:08.098Z,54.03
2018-12-30T21:20:56.999Z,64.60
2018-12-30T21:23:46.507Z,63.40
2018-12-30T21:26:35.020Z,60.77
2018-12-30T21:29:24.137Z,67.17
2018-12-30T21:32:13.256Z,63.37
2018-12-30T21:35:02.481Z,65.97
2018-12-30T21:37:51.576Z,61.50
2018-12-30T21:40:40.368Z,62.77
2018-12-30T21:43:29.965Z,64.73
2018-12-30T21:46:19.082Z,67.80
2018-12-30T21:49:08.559Z,59.10
2018-12-30T21:51:58.193Z,65.30
2018-12-30T21:54:46.501Z,67.40
2018-12-30T21:57:35.091Z,71.60
2018-12-30T22:00:24.170Z,67.77
2018-12-30T22:02:54.360Z,68.90
2018-12-30T22:05:43.598Z,73.50
2018-12-30T22:08:32.159Z,78.00
2018-12-30T22:11:20.540Z,78.17
2018-12-30T22:14:09.519Z,75.47
2018-12-30T22:16:59.004Z,77.80
2018-12-30T22:19:48.852Z,63.30
2018-12-30T22:22:37.672Z,67.30
2018-12-30T22:25:26.331Z,72.47
2018-12-30T22:28:15.431Z,73.00
2018-12-30T22:31:04.256Z,73.27
2018-12-30T22:33:53.402Z,65.23
2018-12-30T22:36:42.858Z,65.30
2018-12-30T22:39:31.866Z,64.53
2018-12-30T22:42:21.517Z,69.57
2018-12-30T22:44:51.682Z,63.97
2018-12-30T22:47:41.438Z,63.87
2018-12-30T22:50:30.914Z,59.90
2018-12-30T22:53:20.538Z,60.20
2018-12-30T22:56:08.953Z,58.70
2018-12-30T22:58:57.666Z,57.50
2018-12-30T23:01:48.092Z,54.03
2018-12-30T23:04:36.954Z,61.23
2018-12-30T23:07:25.960Z,51.07
2018-12-30T23:10:15.265Z,47.63
2018-12-30T23:13:04.703Z,51.43
2018-12-30T23:15:53.218Z,51.30
2018-12-30T23:18:42.288Z,49.30
2018-12-30T23:21:31.590Z,55.63
2018-12-30T23:24:20.349Z,52.63
2018-12-30T23:27:05.399Z,56.00
2018-12-30T23:29:54.404Z,54.00
2018-12-30T23:32:43.300Z,53.27
2018-12-30T23:35:32.263Z,54.73
2018-12-30T23:38:21.064Z,53.87
2018-12-30T23:41:09.371Z,47.70
2018-12-30T23:43:57.795Z,52.03
2018-12-30T23:46:46.369Z,53.00
2018-12-30T23:49:35.478Z,56.50
2018-12-30T23:52:23.872Z,55.97
2018-12-30T23:55:12.234Z,51.40
2018-12-30T23:58:01.511Z,53.80
